sensor_id;sensor_type;location;lat;lon;timestamp;temperature;humidity
48936;DHT22;34745;52.276;10.528;2023-10-08T00:01:17;14.30;76.70
48936;DHT22;34745;52.276;10.528;2023-10-08T00:03:45;14.20;75.50
48936;DHT22;34745;52.276;10.528;2023-10-08T00:06:21;14.20;84.10
48936;DHT22;34745;52.276;10.528;2023-10-08T00:08:49;14.20;83.30
48936;DHT22;34745;52.276;10.528;2023-10-08T00:11:17;14.20;83.10
48936;DHT22;34745;52.276;10.528;2023-10-08T00:13:44;14.10;89.50
48936;DHT22;34745;52.276;10.528;2023-10-08T00:16:13;14.20;98.00
48936;DHT22;34745;52.276;10.528;2023-10-08T00:18:44;14.10;98.90
48936;DHT22;34745;52.276;10.528;2023-10-08T00:21:21;14.10;99.90
48936;DHT22;34745;52.276;10.528;2023-10-08T00:23:55;14.10;99.90
48936;DHT22;34745;52.276;10.528;2023-10-08T00:26:26;14.10;99.90
48936;DHT22;34745;52.276;10.528;2023-10-08T00:28:55;14.00;99.90
48936;DHT22;34745;52.276;10.528;2023-10-08T00:31:23;14.00;99.90
48936;DHT22;34745;52.276;10.528;2023-10-08T00:33:57;13.80;99.90
48936;DHT22;34745;52.276;10.528;2023-10-08T00:36:26;13.80;99.90
48936;DHT22;34745;52.276;10.528;2023-10-08T00:38:53;13.80;99.90
48936;DHT22;34745;52.276;10.528;2023-10-08T00:41:25;13.80;99.90
48936;DHT22;34745;52.276;10.528;2023-10-08T00:43:55;13.70;99.90
48936;DHT22;34745;52.276;10.528;2023-10-08T00:46:27;13.80;99.90
48936;DHT22;34745;52.276;10.528;2023-10-08T00:49:03;13.80;99.90
48936;DHT22;34745;52.276;10.528;2023-10-08T00:51:54;13.70;99.40
48936;DHT22;34745;52.276;10.528;2023-10-08T00:54:34;13.70;94.50
48936;DHT22;34745;52.276;10.528;2023-10-08T00:57:16;13.60;99.90
48936;DHT22;34745;52.276;10.528;2023-10-08T00:59:47;13.60;99.90
48936;DHT22;34745;52.276;10.528;2023-10-08T01:02:20;13.70;99.90
48936;DHT22;34745;52.276;10.528;2023-10-08T01:04:51;13.60;99.90
48936;DHT22;34745;52.276;10.528;2023-10-08T01:07:21;13.60;99.90
48936;DHT22;34745;52.276;10.528;2023-10-08T01:09:48;13.50;99.90
48936;DHT22;34745;52.276;10.528;2023-10-08T01:12:26;13.50;99.90
48936;DHT22;34745;52.276;10.528;2023-10-08T01:14:54;13.40;94.60
48936;DHT22;34745;52.276;10.528;2023-10-08T01:17:23;13.40;99.90
48936;DHT22;34745;52.276;10.528;2023-10-08T01:19:59;13.20;92.80
48936;DHT22;34745;52.276;10.528;2023-10-08T01:22:53;13.30;99.90
48936;DHT22;34745;52.276;10.528;2023-10-08T01:25:20;13.30;99.90
48936;DHT22;34745;52.276;10.528;2023-10-08T01:27:55;13.00;15.30
48936;DHT22;34745;52.276;10.528;2023-10-08T01:30:22;12.80;1.00
48936;DHT22;34745;52.276;10.528;2023-10-08T01:32:49;12.60;1.00
48936;DHT22;34745;52.276;10.528;2023-10-08T01:35:17;12.50;1.00
48936;DHT22;34745;52.276;10.528;2023-10-08T01:37:51;12.50;1.00
48936;DHT22;34745;52.276;10.528;2023-10-08T01:40:19;12.50;1.00
48936;DHT22;34745;52.276;10.528;2023-10-08T01:42:50;12.40;1.00
48936;DHT22;34745;52.276;10.528;2023-10-08T01:45:18;12.60;1.00
48936;DHT22;34745;52.276;10.528;2023-10-08T01:47:46;12.60;1.00
48936;DHT22;34745;52.276;10.528;2023-10-08T01:50:18;12.60;1.00
48936;DHT22;34745;52.276;10.528;2023-10-08T01:52:48;12.60;1.00
48936;DHT22;34745;52.276;10.528;2023-10-08T01:55:15;12.70;1.00
48936;DHT22;34745;52.276;10.528;2023-10-08T01:57:49;12.80;1.00
48936;DHT22;34745;52.276;10.528;2023-10-08T02:00:16;12.70;1.00
48936;DHT22;34745;52.276;10.528;2023-10-08T02:02:49;12.70;1.00
48936;DHT22;34745;52.276;10.528;2023-10-08T02:05:17;12.70;1.00
48936;DHT22;34745;52.276;10.528;2023-10-08T02:07:46;12.70;1.00
48936;DHT22;34745;52.276;10.528;2023-10-08T02:10:13;12.60;1.00
48936;DHT22;34745;52.276;10.528;2023-10-08T02:12:41;12.50;1.00
48936;DHT22;34745;52.276;10.528;2023-10-08T02:15:10;12.50;1.00
48936;DHT22;34745;52.276;10.528;2023-10-08T02:17:38;12.40;1.00
48936;DHT22;34745;52.276;10.528;2023-10-08T02:20:07;12.40;1.00
48936;DHT22;34745;52.276;10.528;2023-10-08T02:22:35;12.40;1.00
48936;DHT22;34745;52.276;10.528;2023-10-08T02:25:03;12.30;1.00
48936;DHT22;34745;52.276;10.528;2023-10-08T02:27:31;12.40;1.00
48936;DHT22;34745;52.276;10.528;2023-10-08T02:30:00;12.40;1.00
48936;DHT22;34745;52.276;10.528;2023-10-08T02:32:31;12.30;2.50
48936;DHT22;34745;52.276;10.528;2023-10-08T02:34:59;12.30;12.20
48936;DHT22;34745;52.276;10.528;2023-10-08T02:37:26;12.30;13.70
48936;DHT22;34745;52.276;10.528;2023-10-08T02:39:55;12.30;1.30
48936;DHT22;34745;52.276;10.528;2023-10-08T02:42:22;12.30;1.00
48936;DHT22;34745;52.276;10.528;2023-10-08T02:44:51;12.20;1.00
48936;DHT22;34745;52.276;10.528;2023-10-08T02:47:18;12.30;14.60
48936;DHT22;34745;52.276;10.528;2023-10-08T02:49:49;12.20;13.00
48936;DHT22;34745;52.276;10.528;2023-10-08T02:52:16;12.30;1.00
48936;DHT22;34745;52.276;10.528;2023-10-08T02:54:44;12.20;1.00
48936;DHT22;34745;52.276;10.528;2023-10-08T02:57:11;12.20;7.60
48936;DHT22;34745;52.276;10.528;2023-10-08T02:59:41;12.20;7.70
48936;DHT22;34745;52.276;10.528;2023-10-08T03:02:12;12.30;2.20
48936;DHT22;34745;52.276;10.528;2023-10-08T03:04:49;12.20;15.90
48936;DHT22;34745;52.276;10.528;2023-10-08T03:07:18;12.10;22.80
48936;DHT22;34745;52.276;10.528;2023-10-08T03:09:50;12.10;25.70
48936;DHT22;34745;52.276;10.528;2023-10-08T03:12:18;12.00;31.60
48936;DHT22;34745;52.276;10.528;2023-10-08T03:14:45;12.00;54.00
48936;DHT22;34745;52.276;10.528;2023-10-08T03:17:28;11.90;57.30
48936;DHT22;34745;52.276;10.528;2023-10-08T03:19:58;11.90;69.00
48936;DHT22;34745;52.276;10.528;2023-10-08T03:22:45;12.00;67.40
48936;DHT22;34745;52.276;10.528;2023-10-08T03:25:13;12.00;62.80
48936;DHT22;34745;52.276;10.528;2023-10-08T03:27:46;12.00;49.00
48936;DHT22;34745;52.276;10.528;2023-10-08T03:30:15;12.10;36.90
48936;DHT22;34745;52.276;10.528;2023-10-08T03:32:42;12.10;34.60
48936;DHT22;34745;52.276;10.528;2023-10-08T03:35:13;12.10;36.40
48936;DHT22;34745;52.276;10.528;2023-10-08T03:37:40;12.00;36.70
48936;DHT22;34745;52.276;10.528;2023-10-08T03:40:17;12.10;48.10
48936;DHT22;34745;52.276;10.528;2023-10-08T03:43:09;12.10;58.50
48936;DHT22;34745;52.276;10.528;2023-10-08T03:45:46;12.10;58.60
48936;DHT22;34745;52.276;10.528;2023-10-08T03:48:26;12.30;43.60
48936;DHT22;34745;52.276;10.528;2023-10-08T03:50:58;12.30;39.20
48936;DHT22;34745;52.276;10.528;2023-10-08T03:53:33;12.20;41.70
48936;DHT22;34745;52.276;10.528;2023-10-08T03:56:09;12.20;37.80
48936;DHT22;34745;52.276;10.528;2023-10-08T03:58:38;12.10;42.20
48936;DHT22;34745;52.276;10.528;2023-10-08T04:01:11;12.00;43.20
48936;DHT22;34745;52.276;10.528;2023-10-08T04:03:45;12.00;46.90
48936;DHT22;34745;52.276;10.528;2023-10-08T04:06:21;12.00;39.60
48936;DHT22;34745;52.276;10.528;2023-10-08T04:09:01;12.10;44.60
48936;DHT22;34745;52.276;10.528;2023-10-08T04:11:38;12.10;41.90
48936;DHT22;34745;52.276;10.528;2023-10-08T04:14:29;12.10;35.40
48936;DHT22;34745;52.276;10.528;2023-10-08T04:16:57;12.10;43.40
48936;DHT22;34745;52.276;10.528;2023-10-08T04:19:26;12.10;44.40
48936;DHT22;34745;52.276;10.528;2023-10-08T04:21:57;12.10;49.50
48936;DHT22;34745;52.276;10.528;2023-10-08T04:24:26;12.00;36.10
48936;DHT22;34745;52.276;10.528;2023-10-08T04:27:02;12.00;38.60
48936;DHT22;34745;52.276;10.528;2023-10-08T04:29:33;12.00;37.50
48936;DHT22;34745;52.276;10.528;2023-10-08T04:32:04;12.00;43.50
48936;DHT22;34745;52.276;10.528;2023-10-08T04:34:48;12.00;44.60
48936;DHT22;34745;52.276;10.528;2023-10-08T04:37:18;12.00;43.50
48936;DHT22;34745;52.276;10.528;2023-10-08T04:39:47;12.00;45.00
48936;DHT22;34745;52.276;10.528;2023-10-08T04:42:21;12.10;39.90
48936;DHT22;34745;52.276;10.528;2023-10-08T04:44:53;12.10;30.80
48936;DHT22;34745;52.276;10.528;2023-10-08T04:47:22;12.00;38.90
48936;DHT22;34745;52.276;10.528;2023-10-08T04:49:59;12.00;39.90
48936;DHT22;34745;52.276;10.528;2023-10-08T04:52:29;11.90;40.30
48936;DHT22;34745;52.276;10.528;2023-10-08T04:54:56;11.90;48.30
48936;DHT22;34745;52.276;10.528;2023-10-08T04:57:23;12.00;36.20
48936;DHT22;34745;52.276;10.528;2023-10-08T04:59:52;11.90;36.90
48936;DHT22;34745;52.276;10.528;2023-10-08T05:02:25;11.90;42.50
48936;DHT22;34745;52.276;10.528;2023-10-08T05:05:04;11.90;47.90
48936;DHT22;34745;52.276;10.528;2023-10-08T05:07:51;11.90;47.20
48936;DHT22;34745;52.276;10.528;2023-10-08T05:10:18;11.90;46.30
48936;DHT22;34745;52.276;10.528;2023-10-08T05:12:51;11.90;47.30
48936;DHT22;34745;52.276;10.528;2023-10-08T05:15:31;12.00;48.50
48936;DHT22;34745;52.276;10.528;2023-10-08T05:18:29;11.90;46.60
48936;DHT22;34745;52.276;10.528;2023-10-08T05:21:16;11.80;62.40
48936;DHT22;34745;52.276;10.528;2023-10-08T05:23:54;11.80;67.30
48936;DHT22;34745;52.276;10.528;2023-10-08T05:26:38;11.90;66.00
48936;DHT22;34745;52.276;10.528;2023-10-08T05:29:09;11.90;72.10
48936;DHT22;34745;52.276;10.528;2023-10-08T05:31:55;11.80;66.50
48936;DHT22;34745;52.276;10.528;2023-10-08T05:34:40;11.90;70.40
48936;DHT22;34745;52.276;10.528;2023-10-08T05:37:18;11.90;66.60
48936;DHT22;34745;52.276;10.528;2023-10-08T05:40:10;11.90;72.70
48936;DHT22;34745;52.276;10.528;2023-10-08T05:43:00;11.80;86.00
48936;DHT22;34745;52.276;10.528;2023-10-08T05:45:40;11.80;94.90
48936;DHT22;34745;52.276;10.528;2023-10-08T05:48:19;11.80;94.20
48936;DHT22;34745;52.276;10.528;2023-10-08T05:50:55;11.80;91.50
48936;DHT22;34745;52.276;10.528;2023-10-08T05:53:23;11.80;94.10
48936;DHT22;34745;52.276;10.528;2023-10-08T05:56:10;11.90;93.40
48936;DHT22;34745;52.276;10.528;2023-10-08T05:58:55;11.80;93.90
48936;DHT22;34745;52.276;10.528;2023-10-08T06:01:41;11.90;99.90
48936;DHT22;34745;52.276;10.528;2023-10-08T06:04:09;12.00;99.90
48936;DHT22;34745;52.276;10.528;2023-10-08T06:07:08;12.00;99.90
48936;DHT22;34745;52.276;10.528;2023-10-08T06:09:50;11.90;99.40
48936;DHT22;34745;52.276;10.528;2023-10-08T06:12:42;12.00;92.50
48936;DHT22;34745;52.276;10.528;2023-10-08T06:15:17;12.10;94.20
48936;DHT22;34745;52.276;10.528;2023-10-08T06:17:54;12.10;94.70
48936;DHT22;34745;52.276;10.528;2023-10-08T06:20:34;12.10;98.80
48936;DHT22;34745;52.276;10.528;2023-10-08T06:23:02;12.10;96.20
48936;DHT22;34745;52.276;10.528;2023-10-08T06:25:34;12.10;94.80
48936;DHT22;34745;52.276;10.528;2023-10-08T06:28:23;12.10;96.90
48936;DHT22;34745;52.276;10.528;2023-10-08T06:30:54;12.10;99.90
48936;DHT22;34745;52.276;10.528;2023-10-08T06:33:23;12.20;99.90
48936;DHT22;34745;52.276;10.528;2023-10-08T06:36:01;12.20;99.90
48936;DHT22;34745;52.276;10.528;2023-10-08T06:38:30;12.20;99.90
48936;DHT22;34745;52.276;10.528;2023-10-08T06:40:58;12.20;99.90
48936;DHT22;34745;52.276;10.528;2023-10-08T06:43:37;12.30;99.90
48936;DHT22;34745;52.276;10.528;2023-10-08T06:46:06;12.40;91.80
48936;DHT22;34745;52.276;10.528;2023-10-08T06:48:39;12.30;90.20
48936;DHT22;34745;52.276;10.528;2023-10-08T06:51:09;12.30;97.80
48936;DHT22;34745;52.276;10.528;2023-10-08T06:53:40;12.30;99.90
48936;DHT22;34745;52.276;10.528;2023-10-08T06:56:07;12.30;99.40
48936;DHT22;34745;52.276;10.528;2023-10-08T06:58:38;12.20;99.90
48936;DHT22;34745;52.276;10.528;2023-10-08T07:01:05;12.30;99.90
48936;DHT22;34745;52.276;10.528;2023-10-08T07:03:36;12.30;97.80
48936;DHT22;34745;52.276;10.528;2023-10-08T07:06:05;12.30;91.90
48936;DHT22;34745;52.276;10.528;2023-10-08T07:08:53;12.40;89.80
48936;DHT22;34745;52.276;10.528;2023-10-08T07:11:22;12.30;86.90
48936;DHT22;34745;52.276;10.528;2023-10-08T07:13:51;12.30;89.70
48936;DHT22;34745;52.276;10.528;2023-10-08T07:16:19;12.30;87.10
48936;DHT22;34745;52.276;10.528;2023-10-08T07:18:48;12.30;88.70
48936;DHT22;34745;52.276;10.528;2023-10-08T07:21:19;12.40;92.40
48936;DHT22;34745;52.276;10.528;2023-10-08T07:23:50;12.50;94.20
48936;DHT22;34745;52.276;10.528;2023-10-08T07:26:25;12.50;84.90
48936;DHT22;34745;52.276;10.528;2023-10-08T07:28:54;12.50;83.00
48936;DHT22;34745;52.276;10.528;2023-10-08T07:31:23;12.40;85.10
48936;DHT22;34745;52.276;10.528;2023-10-08T07:33:53;12.40;98.30
48936;DHT22;34745;52.276;10.528;2023-10-08T07:36:23;12.50;87.90
48936;DHT22;34745;52.276;10.528;2023-10-08T07:38:51;12.60;81.30
48936;DHT22;34745;52.276;10.528;2023-10-08T07:41:18;12.60;75.70
48936;DHT22;34745;52.276;10.528;2023-10-08T07:43:47;12.60;63.90
48936;DHT22;34745;52.276;10.528;2023-10-08T07:46:26;12.60;63.40
48936;DHT22;34745;52.276;10.528;2023-10-08T07:48:54;12.70;48.50
48936;DHT22;34745;52.276;10.528;2023-10-08T07:51:21;12.70;46.50
48936;DHT22;34745;52.276;10.528;2023-10-08T07:53:49;12.70;41.10
48936;DHT22;34745;52.276;10.528;2023-10-08T07:56:16;12.80;25.60
48936;DHT22;34745;52.276;10.528;2023-10-08T07:58:45;12.80;15.00
48936;DHT22;34745;52.276;10.528;2023-10-08T08:01:12;12.80;1.80
48936;DHT22;34745;52.276;10.528;2023-10-08T08:03:42;12.80;1.00
48936;DHT22;34745;52.276;10.528;2023-10-08T08:06:11;12.90;1.00
48936;DHT22;34745;52.276;10.528;2023-10-08T08:08:40;13.00;1.00
48936;DHT22;34745;52.276;10.528;2023-10-08T08:11:08;13.10;1.00
48936;DHT22;34745;52.276;10.528;2023-10-08T08:13:39;13.10;1.00
48936;DHT22;34745;52.276;10.528;2023-10-08T08:16:11;13.20;1.00
48936;DHT22;34745;52.276;10.528;2023-10-08T08:18:46;13.10;1.00
48936;DHT22;34745;52.276;10.528;2023-10-08T08:21:16;13.30;1.00
48936;DHT22;34745;52.276;10.528;2023-10-08T08:23:44;13.30;1.00
48936;DHT22;34745;52.276;10.528;2023-10-08T08:26:18;13.40;1.00
48936;DHT22;34745;52.276;10.528;2023-10-08T08:28:57;13.30;1.00
48936;DHT22;34745;52.276;10.528;2023-10-08T08:31:24;13.40;1.00
48936;DHT22;34745;52.276;10.528;2023-10-08T08:33:55;13.40;1.00
48936;DHT22;34745;52.276;10.528;2023-10-08T08:36:30;13.30;1.00
48936;DHT22;34745;52.276;10.528;2023-10-08T08:38:58;13.30;1.00
48936;DHT22;34745;52.276;10.528;2023-10-08T08:41:26;13.30;1.00
48936;DHT22;34745;52.276;10.528;2023-10-08T08:43:54;13.40;1.00
48936;DHT22;34745;52.276;10.528;2023-10-08T08:46:30;13.30;1.00
48936;DHT22;34745;52.276;10.528;2023-10-08T08:49:03;13.40;1.00
48936;DHT22;34745;52.276;10.528;2023-10-08T08:51:31;13.40;1.00
48936;DHT22;34745;52.276;10.528;2023-10-08T08:53:59;13.50;1.00
48936;DHT22;34745;52.276;10.528;2023-10-08T08:56:28;13.60;1.00
48936;DHT22;34745;52.276;10.528;2023-10-08T08:58:58;13.50;1.00
48936;DHT22;34745;52.276;10.528;2023-10-08T09:01:26;13.50;1.00
48936;DHT22;34745;52.276;10.528;2023-10-08T09:03:58;13.50;1.00
48936;DHT22;34745;52.276;10.528;2023-10-08T09:06:29;13.60;1.00
48936;DHT22;34745;52.276;10.528;2023-10-08T09:08:59;13.60;1.00
48936;DHT22;34745;52.276;10.528;2023-10-08T09:11:40;13.60;1.00
48936;DHT22;34745;52.276;10.528;2023-10-08T09:14:10;13.70;1.00
48936;DHT22;34745;52.276;10.528;2023-10-08T09:16:38;13.70;1.00
48936;DHT22;34745;52.276;10.528;2023-10-08T09:19:05;13.70;1.00
48936;DHT22;34745;52.276;10.528;2023-10-08T09:21:40;13.80;1.00
48936;DHT22;34745;52.276;10.528;2023-10-08T09:24:07;13.80;1.00
48936;DHT22;34745;52.276;10.528;2023-10-08T09:26:38;13.80;1.00
48936;DHT22;34745;52.276;10.528;2023-10-08T09:29:07;13.70;1.00
48936;DHT22;34745;52.276;10.528;2023-10-08T09:31:35;13.70;1.00
48936;DHT22;34745;52.276;10.528;2023-10-08T09:34:03;13.80;1.00
48936;DHT22;34745;52.276;10.528;2023-10-08T09:36:31;13.90;1.00
48936;DHT22;34745;52.276;10.528;2023-10-08T09:39:04;13.90;1.00
48936;DHT22;34745;52.276;10.528;2023-10-08T09:41:33;13.90;1.00
48936;DHT22;34745;52.276;10.528;2023-10-08T09:44:00;13.90;1.00
48936;DHT22;34745;52.276;10.528;2023-10-08T09:46:30;14.00;1.00
48936;DHT22;34745;52.276;10.528;2023-10-08T09:49:00;14.00;1.00
48936;DHT22;34745;52.276;10.528;2023-10-08T09:51:29;14.00;1.00
48936;DHT22;34745;52.276;10.528;2023-10-08T09:54:10;14.00;1.00
48936;DHT22;34745;52.276;10.528;2023-10-08T09:56:39;14.00;1.00
48936;DHT22;34745;52.276;10.528;2023-10-08T09:59:07;14.00;1.00
48936;DHT22;34745;52.276;10.528;2023-10-08T10:01:38;13.90;1.00
48936;DHT22;34745;52.276;10.528;2023-10-08T10:04:09;13.90;1.00
48936;DHT22;34745;52.276;10.528;2023-10-08T10:06:38;14.00;1.00
48936;DHT22;34745;52.276;10.528;2023-10-08T10:09:20;14.10;1.00
48936;DHT22;34745;52.276;10.528;2023-10-08T10:11:49;14.00;1.00
48936;DHT22;34745;52.276;10.528;2023-10-08T10:14:17;14.00;1.00
48936;DHT22;34745;52.276;10.528;2023-10-08T10:16:48;14.10;1.00
48936;DHT22;34745;52.276;10.528;2023-10-08T10:19:20;14.10;1.00
48936;DHT22;34745;52.276;10.528;2023-10-08T10:21:48;14.20;1.00
48936;DHT22;34745;52.276;10.528;2023-10-08T10:24:32;14.40;1.00
48936;DHT22;34745;52.276;10.528;2023-10-08T10:27:11;14.70;1.00
48936;DHT22;34745;52.276;10.528;2023-10-08T10:29:41;15.00;1.00
48936;DHT22;34745;52.276;10.528;2023-10-08T10:32:11;15.10;1.00
48936;DHT22;34745;52.276;10.528;2023-10-08T10:34:40;14.90;1.00
48936;DHT22;34745;52.276;10.528;2023-10-08T10:37:08;14.70;1.00
48936;DHT22;34745;52.276;10.528;2023-10-08T10:39:52;14.80;1.00
48936;DHT22;34745;52.276;10.528;2023-10-08T10:42:22;14.90;1.00
48936;DHT22;34745;52.276;10.528;2023-10-08T10:44:50;15.10;1.00
48936;DHT22;34745;52.276;10.528;2023-10-08T10:47:17;15.40;1.00
48936;DHT22;34745;52.276;10.528;2023-10-08T10:49:46;15.60;1.00
48936;DHT22;34745;52.276;10.528;2023-10-08T10:52:40;15.70;1.00
48936;DHT22;34745;52.276;10.528;2023-10-08T10:55:22;15.80;1.00
48936;DHT22;34745;52.276;10.528;2023-10-08T10:57:54;15.90;1.00
48936;DHT22;34745;52.276;10.528;2023-10-08T11:00:33;16.10;1.00
48936;DHT22;34745;52.276;10.528;2023-10-08T11:03:02;15.90;1.00
48936;DHT22;34745;52.276;10.528;2023-10-08T11:05:47;15.40;1.00
48936;DHT22;34745;52.276;10.528;2023-10-08T11:08:19;15.00;1.00
48936;DHT22;34745;52.276;10.528;2023-10-08T11:10:48;14.60;1.00
48936;DHT22;34745;52.276;10.528;2023-10-08T11:13:19;14.50;1.00
48936;DHT22;34745;52.276;10.528;2023-10-08T11:15:51;14.60;1.00
48936;DHT22;34745;52.276;10.528;2023-10-08T11:18:22;14.90;1.00
48936;DHT22;34745;52.276;10.528;2023-10-08T11:20:51;15.40;1.00
48936;DHT22;34745;52.276;10.528;2023-10-08T11:23:31;15.50;1.00
48936;DHT22;34745;52.276;10.528;2023-10-08T11:26:02;15.50;1.00
48936;DHT22;34745;52.276;10.528;2023-10-08T11:28:31;15.50;1.00
48936;DHT22;34745;52.276;10.528;2023-10-08T11:31:01;15.70;1.00
48936;DHT22;34745;52.276;10.528;2023-10-08T11:33:36;15.80;1.00
48936;DHT22;34745;52.276;10.528;2023-10-08T11:36:05;16.00;1.00
48936;DHT22;34745;52.276;10.528;2023-10-08T11:38:45;16.20;1.00
48936;DHT22;34745;52.276;10.528;2023-10-08T11:41:19;16.50;1.00
48936;DHT22;34745;52.276;10.528;2023-10-08T11:43:50;16.80;1.00
48936;DHT22;34745;52.276;10.528;2023-10-08T11:46:28;17.00;1.00
48936;DHT22;34745;52.276;10.528;2023-10-08T11:49:00;17.10;1.00
48936;DHT22;34745;52.276;10.528;2023-10-08T11:51:32;17.10;1.00
48936;DHT22;34745;52.276;10.528;2023-10-08T11:53:59;16.80;1.00
48936;DHT22;34745;52.276;10.528;2023-10-08T11:56:29;16.60;1.00
48936;DHT22;34745;52.276;10.528;2023-10-08T11:58:56;16.50;1.00
48936;DHT22;34745;52.276;10.528;2023-10-08T12:01:24;16.50;1.00
48936;DHT22;34745;52.276;10.528;2023-10-08T12:03:51;16.50;1.00
48936;DHT22;34745;52.276;10.528;2023-10-08T12:06:19;16.80;1.00
48936;DHT22;34745;52.276;10.528;2023-10-08T12:08:47;16.60;1.00
48936;DHT22;34745;52.276;10.528;2023-10-08T12:11:16;16.20;1.00
48936;DHT22;34745;52.276;10.528;2023-10-08T12:13:45;16.10;1.00
48936;DHT22;34745;52.276;10.528;2023-10-08T12:16:12;16.40;1.00
48936;DHT22;34745;52.276;10.528;2023-10-08T12:18:46;16.60;1.00
48936;DHT22;34745;52.276;10.528;2023-10-08T12:21:21;16.70;1.00
48936;DHT22;34745;52.276;10.528;2023-10-08T12:23:49;17.00;1.00
48936;DHT22;34745;52.276;10.528;2023-10-08T12:26:19;17.00;1.00
48936;DHT22;34745;52.276;10.528;2023-10-08T12:28:48;16.90;1.00
48936;DHT22;34745;52.276;10.528;2023-10-08T12:31:16;17.20;1.00
48936;DHT22;34745;52.276;10.528;2023-10-08T12:33:44;17.30;1.00
48936;DHT22;34745;52.276;10.528;2023-10-08T12:36:11;17.20;1.00
48936;DHT22;34745;52.276;10.528;2023-10-08T12:38:42;17.40;1.00
48936;DHT22;34745;52.276;10.528;2023-10-08T12:41:10;17.60;1.00
48936;DHT22;34745;52.276;10.528;2023-10-08T12:43:41;17.70;1.00
48936;DHT22;34745;52.276;10.528;2023-10-08T12:46:12;17.80;99.90
48936;DHT22;34745;52.276;10.528;2023-10-08T12:48:45;17.90;1.00
48936;DHT22;34745;52.276;10.528;2023-10-08T12:51:15;18.20;99.90
48936;DHT22;34745;52.276;10.528;2023-10-08T12:53:43;18.10;99.90
48936;DHT22;34745;52.276;10.528;2023-10-08T12:56:18;18.20;1.00
48936;DHT22;34745;52.276;10.528;2023-10-08T12:58:48;18.40;1.00
48936;DHT22;34745;52.276;10.528;2023-10-08T13:01:17;18.60;1.00
48936;DHT22;34745;52.276;10.528;2023-10-08T13:03:45;18.90;1.00
48936;DHT22;34745;52.276;10.528;2023-10-08T13:06:18;19.10;1.00
48936;DHT22;34745;52.276;10.528;2023-10-08T13:08:58;19.20;99.90
48936;DHT22;34745;52.276;10.528;2023-10-08T13:11:27;19.20;99.90
48936;DHT22;34745;52.276;10.528;2023-10-08T13:13:57;19.30;1.00
48936;DHT22;34745;52.276;10.528;2023-10-08T13:16:27;19.40;99.90
48936;DHT22;34745;52.276;10.528;2023-10-08T13:19:04;19.40;99.90
48936;DHT22;34745;52.276;10.528;2023-10-08T13:21:35;19.10;99.90
48936;DHT22;34745;52.276;10.528;2023-10-08T13:24:04;18.80;99.90
48936;DHT22;34745;52.276;10.528;2023-10-08T13:26:36;18.40;99.90
48936;DHT22;34745;52.276;10.528;2023-10-08T13:29:05;18.20;1.00
48936;DHT22;34745;52.276;10.528;2023-10-08T13:31:37;18.40;99.90
48936;DHT22;34745;52.276;10.528;2023-10-08T13:34:05;18.60;99.90
48936;DHT22;34745;52.276;10.528;2023-10-08T13:36:36;18.70;99.90
48936;DHT22;34745;52.276;10.528;2023-10-08T13:39:05;18.70;99.90
48936;DHT22;34745;52.276;10.528;2023-10-08T13:41:36;18.70;99.90
48936;DHT22;34745;52.276;10.528;2023-10-08T13:44:06;18.50;1.00
48936;DHT22;34745;52.276;10.528;2023-10-08T13:46:33;18.50;99.90
48936;DHT22;34745;52.276;10.528;2023-10-08T13:49:05;18.40;1.00
48936;DHT22;34745;52.276;10.528;2023-10-08T13:51:37;18.30;1.00
48936;DHT22;34745;52.276;10.528;2023-10-08T13:54:05;18.10;1.00
48936;DHT22;34745;52.276;10.528;2023-10-08T13:56:37;18.30;1.00
48936;DHT22;34745;52.276;10.528;2023-10-08T13:59:15;18.80;1.00
48936;DHT22;34745;52.276;10.528;2023-10-08T14:01:44;19.00;1.00
48936;DHT22;34745;52.276;10.528;2023-10-08T14:04:15;19.10;1.00
48936;DHT22;34745;52.276;10.528;2023-10-08T14:06:47;19.10;1.00
48936;DHT22;34745;52.276;10.528;2023-10-08T14:09:22;18.90;1.00
48936;DHT22;34745;52.276;10.528;2023-10-08T14:11:59;18.80;1.00
48936;DHT22;34745;52.276;10.528;2023-10-08T14:14:26;18.50;1.00
48936;DHT22;34745;52.276;10.528;2023-10-08T14:16:58;18.20;1.00
48936;DHT22;34745;52.276;10.528;2023-10-08T14:19:37;17.90;1.00
48936;DHT22;34745;52.276;10.528;2023-10-08T14:22:14;17.60;1.00
48936;DHT22;34745;52.276;10.528;2023-10-08T14:24:42;17.50;1.00
48936;DHT22;34745;52.276;10.528;2023-10-08T14:27:13;17.20;1.00
48936;DHT22;34745;52.276;10.528;2023-10-08T14:29:43;17.10;1.00
48936;DHT22;34745;52.276;10.528;2023-10-08T14:32:12;16.90;1.00
48936;DHT22;34745;52.276;10.528;2023-10-08T14:34:40;16.90;1.00
48936;DHT22;34745;52.276;10.528;2023-10-08T14:37:14;16.80;1.00
48936;DHT22;34745;52.276;10.528;2023-10-08T14:40:00;16.70;1.00
48936;DHT22;34745;52.276;10.528;2023-10-08T14:42:45;16.60;1.00
48936;DHT22;34745;52.276;10.528;2023-10-08T14:45:31;16.40;1.00
48936;DHT22;34745;52.276;10.528;2023-10-08T14:48:02;16.40;1.00
48936;DHT22;34745;52.276;10.528;2023-10-08T14:50:34;16.60;1.00
48936;DHT22;34745;52.276;10.528;2023-10-08T14:53:01;16.70;1.00
48936;DHT22;34745;52.276;10.528;2023-10-08T14:55:33;16.90;1.00
48936;DHT22;34745;52.276;10.528;2023-10-08T14:58:04;17.30;1.00
48936;DHT22;34745;52.276;10.528;2023-10-08T15:00:35;17.30;1.00
48936;DHT22;34745;52.276;10.528;2023-10-08T15:03:03;17.10;1.00
48936;DHT22;34745;52.276;10.528;2023-10-08T15:05:30;17.10;1.00
48936;DHT22;34745;52.276;10.528;2023-10-08T15:07:59;16.80;1.00
48936;DHT22;34745;52.276;10.528;2023-10-08T15:10:26;16.80;1.00
48936;DHT22;34745;52.276;10.528;2023-10-08T15:12:54;16.70;1.00
48936;DHT22;34745;52.276;10.528;2023-10-08T15:15:21;16.70;1.00
48936;DHT22;34745;52.276;10.528;2023-10-08T15:17:52;16.60;1.00
48936;DHT22;34745;52.276;10.528;2023-10-08T15:20:21;16.60;1.00
48936;DHT22;34745;52.276;10.528;2023-10-08T15:22:50;16.50;1.00
48936;DHT22;34745;52.276;10.528;2023-10-08T15:25:20;16.50;1.00
48936;DHT22;34745;52.276;10.528;2023-10-08T15:27:47;16.30;1.00
48936;DHT22;34745;52.276;10.528;2023-10-08T15:30:17;16.20;1.00
48936;DHT22;34745;52.276;10.528;2023-10-08T15:32:47;16.10;1.00
48936;DHT22;34745;52.276;10.528;2023-10-08T15:35:16;16.00;1.00
48936;DHT22;34745;52.276;10.528;2023-10-08T15:37:46;15.90;1.00
48936;DHT22;34745;52.276;10.528;2023-10-08T15:40:15;15.90;1.00
48936;DHT22;34745;52.276;10.528;2023-10-08T15:42:48;15.90;1.00
48936;DHT22;34745;52.276;10.528;2023-10-08T15:45:18;15.90;1.00
48936;DHT22;34745;52.276;10.528;2023-10-08T15:47:45;15.70;1.00
48936;DHT22;34745;52.276;10.528;2023-10-08T15:50:12;15.70;1.00
48936;DHT22;34745;52.276;10.528;2023-10-08T15:52:40;15.80;1.00
48936;DHT22;34745;52.276;10.528;2023-10-08T15:55:08;15.70;1.00